Portada
METAR-TAF:

METAR-TAF

Aeroports :

Aeroport Internacional Amata Kabua

Majuro, Illes Marshall

latitud: 07-04N, longitud: 171-17E, altitud: 2 m

METAR: manca

Hora: 05:11 (17:11 UTC)

Pronòstic

L'informe es va fer fa 5 hores i 33 minuts, a les 11:38 UTC
Pronòstic vàlid del 20 a les 12 UTC al 21 a les 12 UTC
Vent 15 kt del Est/Nord-Est amb ràfegues de 22 kt
Visibilitat: 10 km
Escasses núvols a una alçada de 1500 ft
Núvols disperses a una alçada de 5000 ft
xàfecs en les proximitats

TAF: PKMJ 201138Z 2012/2112 07015G22KT P6SM VCSH FEW015 SCT050

Observacions i pronòstics meteorològics de més de 4000 aeroports (METAR i TAF).

Les estacions disponibles són els punts grocs i vermells al mapa.

Posi el ratolí al punt desitjat per veure el nom de l'estació.

Feu clic per veure les observacions i els pronòstics meteorològics.

Per canviar el mapa: feu clic els botons verds amb una creu de color negre per apropar; al botó verd amb un guió per allunyar la imatge; o en les fletxes verdes per a mapes adjacents.


METAR-TAF: